sensor_id;sensor_type;location;lat;lon;timestamp;temperature;humidity
28189;DHT22;15471;51.166;4.470;2023-04-29T00:05:48;10.00;99.90
28189;DHT22;15471;51.166;4.470;2023-04-29T00:12:15;10.00;99.90
28189;DHT22;15471;51.166;4.470;2023-04-29T00:14:41;10.00;99.90
28189;DHT22;15471;51.166;4.470;2023-04-29T00:17:08;9.90;99.90
28189;DHT22;15471;51.166;4.470;2023-04-29T00:19:48;9.90;99.90
28189;DHT22;15471;51.166;4.470;2023-04-29T00:26:16;10.00;99.90
28189;DHT22;15471;51.166;4.470;2023-04-29T00:36:43;9.90;99.90
28189;DHT22;15471;51.166;4.470;2023-04-29T00:47:35;9.90;99.90
28189;DHT22;15471;51.166;4.470;2023-04-29T00:54:04;9.90;99.90
28189;DHT22;15471;51.166;4.470;2023-04-29T01:04:35;9.70;99.90
28189;DHT22;15471;51.166;4.470;2023-04-29T01:14:03;9.60;99.90
28189;DHT22;15471;51.166;4.470;2023-04-29T01:17:17;9.60;99.90
28189;DHT22;15471;51.166;4.470;2023-04-29T01:39:17;9.50;99.90
28189;DHT22;15471;51.166;4.470;2023-04-29T01:57:17;9.50;99.90
28189;DHT22;15471;51.166;4.470;2023-04-29T02:08:19;9.50;99.90
28189;DHT22;15471;51.166;4.470;2023-04-29T02:15:17;9.50;99.90
28189;DHT22;15471;51.166;4.470;2023-04-29T02:17:45;9.60;99.90
28189;DHT22;15471;51.166;4.470;2023-04-29T02:20:12;9.50;99.90
28189;DHT22;15471;51.166;4.470;2023-04-29T02:27:12;9.50;99.90
28189;DHT22;15471;51.166;4.470;2023-04-29T02:41:30;9.30;99.90
28189;DHT22;15471;51.166;4.470;2023-04-29T02:48:09;9.30;99.90
28189;DHT22;15471;51.166;4.470;2023-04-29T02:55:02;9.30;99.90
28189;DHT22;15471;51.166;4.470;2023-04-29T03:14:02;9.40;99.90
28189;DHT22;15471;51.166;4.470;2023-04-29T03:20:24;9.30;99.90
28189;DHT22;15471;51.166;4.470;2023-04-29T03:36:45;9.30;99.90
28189;DHT22;15471;51.166;4.470;2023-04-29T03:42:41;9.30;99.90
28189;DHT22;15471;51.166;4.470;2023-04-29T03:45:07;9.20;99.90
28189;DHT22;15471;51.166;4.470;2023-04-29T03:54:23;9.20;99.90
28189;DHT22;15471;51.166;4.470;2023-04-29T03:56:50;9.20;99.90
28189;DHT22;15471;51.166;4.470;2023-04-29T03:59:20;9.10;99.90
28189;DHT22;15471;51.166;4.470;2023-04-29T04:05:49;9.10;99.90
28189;DHT22;15471;51.166;4.470;2023-04-29T04:20:30;9.10;99.90
28189;DHT22;15471;51.166;4.470;2023-04-29T04:26:52;9.10;99.90
28189;DHT22;15471;51.166;4.470;2023-04-29T04:29:27;9.10;99.90
28189;DHT22;15471;51.166;4.470;2023-04-29T05:08:09;9.10;99.90
28189;DHT22;15471;51.166;4.470;2023-04-29T05:29:46;9.10;99.90
28189;DHT22;15471;51.166;4.470;2023-04-29T05:32:12;9.20;99.90
28189;DHT22;15471;51.166;4.470;2023-04-29T05:34:39;9.10;99.90
28189;DHT22;15471;51.166;4.470;2023-04-29T05:37:11;9.20;99.90
28189;DHT22;15471;51.166;4.470;2023-04-29T05:43:50;9.20;99.90
28189;DHT22;15471;51.166;4.470;2023-04-29T05:50:10;9.20;99.90
28189;DHT22;15471;51.166;4.470;2023-04-29T05:52:55;9.20;99.90
28189;DHT22;15471;51.166;4.470;2023-04-29T05:59:29;9.30;99.90
28189;DHT22;15471;51.166;4.470;2023-04-29T06:47:48;9.70;99.90
28189;DHT22;15471;51.166;4.470;2023-04-29T06:50:28;9.80;99.90
28189;DHT22;15471;51.166;4.470;2023-04-29T06:52:55;9.80;99.90
28189;DHT22;15471;51.166;4.470;2023-04-29T06:55:22;9.70;99.90
28189;DHT22;15471;51.166;4.470;2023-04-29T06:57:48;9.70;99.90
28189;DHT22;15471;51.166;4.470;2023-04-29T07:00:14;9.70;99.90
28189;DHT22;15471;51.166;4.470;2023-04-29T07:03:12;9.80;99.90
28189;DHT22;15471;51.166;4.470;2023-04-29T07:08:42;10.10;99.90
28189;DHT22;15471;51.166;4.470;2023-04-29T07:11:08;10.20;99.90
28189;DHT22;15471;51.166;4.470;2023-04-29T07:13:53;10.30;99.90
28189;DHT22;15471;51.166;4.470;2023-04-29T07:16:19;10.40;99.90
28189;DHT22;15471;51.166;4.470;2023-04-29T07:18:47;10.30;99.90
28189;DHT22;15471;51.166;4.470;2023-04-29T07:25:30;10.30;99.90
28189;DHT22;15471;51.166;4.470;2023-04-29T07:32:09;10.40;99.90
28189;DHT22;15471;51.166;4.470;2023-04-29T07:38:34;10.60;99.90
28189;DHT22;15471;51.166;4.470;2023-04-29T07:41:01;10.60;99.90
28189;DHT22;15471;51.166;4.470;2023-04-29T07:43:29;10.60;99.90
28189;DHT22;15471;51.166;4.470;2023-04-29T07:46:03;10.60;99.90
28189;DHT22;15471;51.166;4.470;2023-04-29T08:16:38;11.40;99.90
28189;DHT22;15471;51.166;4.470;2023-04-29T08:19:24;11.50;99.90
28189;DHT22;15471;51.166;4.470;2023-04-29T08:21:50;11.50;99.90
28189;DHT22;15471;51.166;4.470;2023-04-29T08:24:19;11.40;99.90
28189;DHT22;15471;51.166;4.470;2023-04-29T08:27:09;11.40;99.90
28189;DHT22;15471;51.166;4.470;2023-04-29T08:30:05;11.70;99.90
28189;DHT22;15471;51.166;4.470;2023-04-29T08:32:45;11.90;99.90
28189;DHT22;15471;51.166;4.470;2023-04-29T08:39:06;11.80;99.90
28189;DHT22;15471;51.166;4.470;2023-04-29T08:41:38;11.80;99.90
28189;DHT22;15471;51.166;4.470;2023-04-29T08:56:03;13.00;99.90
28189;DHT22;15471;51.166;4.470;2023-04-29T08:58:44;13.20;99.90
28189;DHT22;15471;51.166;4.470;2023-04-29T09:01:21;13.20;99.90
28189;DHT22;15471;51.166;4.470;2023-04-29T09:06:35;13.20;99.90
28189;DHT22;15471;51.166;4.470;2023-04-29T09:09:15;13.20;99.90
28189;DHT22;15471;51.166;4.470;2023-04-29T09:11:53;13.70;99.90
28189;DHT22;15471;51.166;4.470;2023-04-29T09:14:20;14.60;99.90
28189;DHT22;15471;51.166;4.470;2023-04-29T09:16:48;14.80;99.90
28189;DHT22;15471;51.166;4.470;2023-04-29T09:31:26;14.80;99.90
28189;DHT22;15471;51.166;4.470;2023-04-29T09:33:54;15.00;99.90
28189;DHT22;15471;51.166;4.470;2023-04-29T10:23:21;14.50;99.90
28189;DHT22;15471;51.166;4.470;2023-04-29T10:29:44;14.30;99.90
28189;DHT22;15471;51.166;4.470;2023-04-29T10:32:12;14.40;99.90
28189;DHT22;15471;51.166;4.470;2023-04-29T10:34:41;14.90;99.90
28189;DHT22;15471;51.166;4.470;2023-04-29T10:37:09;15.10;99.90
28189;DHT22;15471;51.166;4.470;2023-04-29T10:40:17;14.80;99.90
28189;DHT22;15471;51.166;4.470;2023-04-29T10:42:51;14.20;99.90
28189;DHT22;15471;51.166;4.470;2023-04-29T10:45:28;14.20;99.90
28189;DHT22;15471;51.166;4.470;2023-04-29T10:53:12;14.20;99.90
28189;DHT22;15471;51.166;4.470;2023-04-29T10:55:40;14.10;99.90
28189;DHT22;15471;51.166;4.470;2023-04-29T10:58:45;14.40;99.90
28189;DHT22;15471;51.166;4.470;2023-04-29T11:02:09;14.40;99.90
28189;DHT22;15471;51.166;4.470;2023-04-29T11:08:36;15.10;99.90
28189;DHT22;15471;51.166;4.470;2023-04-29T11:11:09;15.80;99.90
28189;DHT22;15471;51.166;4.470;2023-04-29T11:28:31;16.20;99.90
28189;DHT22;15471;51.166;4.470;2023-04-29T11:31:08;16.40;99.90
28189;DHT22;15471;51.166;4.470;2023-04-29T11:50:29;17.80;99.90
28189;DHT22;15471;51.166;4.470;2023-04-29T11:53:20;17.40;99.90
28189;DHT22;15471;51.166;4.470;2023-04-29T11:55:46;17.10;99.90
28189;DHT22;15471;51.166;4.470;2023-04-29T12:02:11;17.00;99.90
28189;DHT22;15471;51.166;4.470;2023-04-29T12:08:32;18.20;99.90
28189;DHT22;15471;51.166;4.470;2023-04-29T12:11:00;17.30;99.90
28189;DHT22;15471;51.166;4.470;2023-04-29T12:17:42;16.70;99.90
28189;DHT22;15471;51.166;4.470;2023-04-29T12:20:09;16.90;99.90
28189;DHT22;15471;51.166;4.470;2023-04-29T12:22:37;16.90;99.90
28189;DHT22;15471;51.166;4.470;2023-04-29T12:25:04;17.40;99.90
28189;DHT22;15471;51.166;4.470;2023-04-29T12:27:30;17.90;99.90
28189;DHT22;15471;51.166;4.470;2023-04-29T12:33:53;18.30;99.90
28189;DHT22;15471;51.166;4.470;2023-04-29T12:36:20;18.60;99.90
28189;DHT22;15471;51.166;4.470;2023-04-29T12:41:57;19.20;99.90
28189;DHT22;15471;51.166;4.470;2023-04-29T12:48:19;19.60;99.90
28189;DHT22;15471;51.166;4.470;2023-04-29T12:54:53;18.30;99.90
28189;DHT22;15471;51.166;4.470;2023-04-29T13:00:42;18.00;99.90
28189;DHT22;15471;51.166;4.470;2023-04-29T13:03:08;17.60;99.90
28189;DHT22;15471;51.166;4.470;2023-04-29T13:05:34;17.40;99.90
28189;DHT22;15471;51.166;4.470;2023-04-29T13:08:00;17.70;99.90
28189;DHT22;15471;51.166;4.470;2023-04-29T13:10:27;18.10;99.90
28189;DHT22;15471;51.166;4.470;2023-04-29T13:12:53;18.00;99.90
28189;DHT22;15471;51.166;4.470;2023-04-29T13:15:20;17.50;99.90
28189;DHT22;15471;51.166;4.470;2023-04-29T13:17:46;17.50;99.90
28189;DHT22;15471;51.166;4.470;2023-04-29T13:20:22;17.50;99.90
28189;DHT22;15471;51.166;4.470;2023-04-29T13:34:43;18.10;99.90
28189;DHT22;15471;51.166;4.470;2023-04-29T13:41:05;18.60;99.90
28189;DHT22;15471;51.166;4.470;2023-04-29T13:58:12;18.20;99.90
28189;DHT22;15471;51.166;4.470;2023-04-29T14:00:38;17.70;99.90
28189;DHT22;15471;51.166;4.470;2023-04-29T14:03:37;17.70;99.90
28189;DHT22;15471;51.166;4.470;2023-04-29T14:09:58;18.30;99.90
28189;DHT22;15471;51.166;4.470;2023-04-29T14:16:21;17.80;99.90
28189;DHT22;15471;51.166;4.470;2023-04-29T14:18:47;17.40;99.90
28189;DHT22;15471;51.166;4.470;2023-04-29T14:32:28;16.90;99.90
28189;DHT22;15471;51.166;4.470;2023-04-29T14:34:54;16.70;99.90
28189;DHT22;15471;51.166;4.470;2023-04-29T14:40:46;17.00;99.90
28189;DHT22;15471;51.166;4.470;2023-04-29T14:43:13;17.10;99.90
28189;DHT22;15471;51.166;4.470;2023-04-29T14:49:34;17.70;99.90
28189;DHT22;15471;51.166;4.470;2023-04-29T14:52:00;17.80;99.90
28189;DHT22;15471;51.166;4.470;2023-04-29T14:54:27;18.10;99.90
28189;DHT22;15471;51.166;4.470;2023-04-29T14:56:55;18.20;99.90
28189;DHT22;15471;51.166;4.470;2023-04-29T15:02:45;18.60;99.90
28189;DHT22;15471;51.166;4.470;2023-04-29T15:05:12;18.60;99.90
28189;DHT22;15471;51.166;4.470;2023-04-29T15:07:38;18.40;99.90
28189;DHT22;15471;51.166;4.470;2023-04-29T15:10:05;18.50;99.90
28189;DHT22;15471;51.166;4.470;2023-04-29T15:12:34;18.70;99.90
28189;DHT22;15471;51.166;4.470;2023-04-29T15:15:00;18.80;99.90
28189;DHT22;15471;51.166;4.470;2023-04-29T15:17:26;18.80;99.90
28189;DHT22;15471;51.166;4.470;2023-04-29T15:19:53;18.10;99.90
28189;DHT22;15471;51.166;4.470;2023-04-29T15:22:19;17.90;99.90
28189;DHT22;15471;51.166;4.470;2023-04-29T15:24:45;18.00;99.90
28189;DHT22;15471;51.166;4.470;2023-04-29T15:27:11;17.80;99.90
28189;DHT22;15471;51.166;4.470;2023-04-29T15:29:40;17.60;99.90
28189;DHT22;15471;51.166;4.470;2023-04-29T15:32:06;17.60;99.90
28189;DHT22;15471;51.166;4.470;2023-04-29T15:34:35;17.80;99.90
28189;DHT22;15471;51.166;4.470;2023-04-29T15:37:01;18.00;99.90
28189;DHT22;15471;51.166;4.470;2023-04-29T15:39:27;17.80;99.90
28189;DHT22;15471;51.166;4.470;2023-04-29T15:41:53;17.90;99.90
28189;DHT22;15471;51.166;4.470;2023-04-29T15:44:19;18.00;99.90
28189;DHT22;15471;51.166;4.470;2023-04-29T15:46:45;17.70;99.90
28189;DHT22;15471;51.166;4.470;2023-04-29T15:49:12;17.50;99.90
28189;DHT22;15471;51.166;4.470;2023-04-29T15:51:38;17.30;99.90
28189;DHT22;15471;51.166;4.470;2023-04-29T15:54:04;17.40;99.90
28189;DHT22;15471;51.166;4.470;2023-04-29T15:56:32;17.30;99.90
28189;DHT22;15471;51.166;4.470;2023-04-29T15:58:58;17.20;99.90
28189;DHT22;15471;51.166;4.470;2023-04-29T16:01:24;17.20;99.90
28189;DHT22;15471;51.166;4.470;2023-04-29T16:03:51;17.50;99.90
28189;DHT22;15471;51.166;4.470;2023-04-29T16:06:17;17.50;99.90
28189;DHT22;15471;51.166;4.470;2023-04-29T16:08:44;17.50;99.90
28189;DHT22;15471;51.166;4.470;2023-04-29T16:11:10;17.80;99.90
28189;DHT22;15471;51.166;4.470;2023-04-29T16:13:36;18.00;99.90
28189;DHT22;15471;51.166;4.470;2023-04-29T16:16:02;18.00;99.90
28189;DHT22;15471;51.166;4.470;2023-04-29T16:18:28;17.70;99.90
28189;DHT22;15471;51.166;4.470;2023-04-29T16:20:55;17.70;99.90
28189;DHT22;15471;51.166;4.470;2023-04-29T16:23:21;17.90;99.90
28189;DHT22;15471;51.166;4.470;2023-04-29T16:25:47;17.70;99.90
28189;DHT22;15471;51.166;4.470;2023-04-29T16:28:13;17.70;99.90
28189;DHT22;15471;51.166;4.470;2023-04-29T16:30:39;17.50;99.90
28189;DHT22;15471;51.166;4.470;2023-04-29T16:33:05;17.10;99.90
28189;DHT22;15471;51.166;4.470;2023-04-29T16:35:31;16.60;99.90
28189;DHT22;15471;51.166;4.470;2023-04-29T16:37:58;16.20;99.90
28189;DHT22;15471;51.166;4.470;2023-04-29T16:40:25;16.10;99.90
28189;DHT22;15471;51.166;4.470;2023-04-29T16:42:52;16.40;99.90
28189;DHT22;15471;51.166;4.470;2023-04-29T16:45:22;16.30;99.90
28189;DHT22;15471;51.166;4.470;2023-04-29T16:47:48;16.00;99.90
28189;DHT22;15471;51.166;4.470;2023-04-29T16:50:14;15.80;99.90
28189;DHT22;15471;51.166;4.470;2023-04-29T16:52:42;15.80;99.90
28189;DHT22;15471;51.166;4.470;2023-04-29T16:55:08;15.80;99.90
28189;DHT22;15471;51.166;4.470;2023-04-29T16:57:37;15.90;99.90
28189;DHT22;15471;51.166;4.470;2023-04-29T17:00:03;16.10;99.90
28189;DHT22;15471;51.166;4.470;2023-04-29T17:02:29;15.90;99.90
28189;DHT22;15471;51.166;4.470;2023-04-29T17:04:56;15.70;99.90
28189;DHT22;15471;51.166;4.470;2023-04-29T17:07:22;15.70;99.90
28189;DHT22;15471;51.166;4.470;2023-04-29T17:09:48;15.60;99.90
28189;DHT22;15471;51.166;4.470;2023-04-29T17:12:14;16.40;99.90
28189;DHT22;15471;51.166;4.470;2023-04-29T17:14:40;17.90;99.90
28189;DHT22;15471;51.166;4.470;2023-04-29T17:17:07;19.10;99.90
28189;DHT22;15471;51.166;4.470;2023-04-29T17:19:33;19.30;99.90
28189;DHT22;15471;51.166;4.470;2023-04-29T17:21:59;19.80;99.90
28189;DHT22;15471;51.166;4.470;2023-04-29T17:24:25;19.60;99.90
28189;DHT22;15471;51.166;4.470;2023-04-29T17:26:51;18.30;99.90
28189;DHT22;15471;51.166;4.470;2023-04-29T17:29:17;17.40;99.90
28189;DHT22;15471;51.166;4.470;2023-04-29T17:31:43;16.90;99.90
28189;DHT22;15471;51.166;4.470;2023-04-29T17:34:13;16.40;99.90
28189;DHT22;15471;51.166;4.470;2023-04-29T17:36:49;16.00;99.90
28189;DHT22;15471;51.166;4.470;2023-04-29T17:39:16;15.70;99.90
28189;DHT22;15471;51.166;4.470;2023-04-29T17:41:42;15.60;99.90
28189;DHT22;15471;51.166;4.470;2023-04-29T17:44:08;15.40;99.90
28189;DHT22;15471;51.166;4.470;2023-04-29T17:46:35;15.20;99.90
28189;DHT22;15471;51.166;4.470;2023-04-29T17:49:02;15.10;99.90
28189;DHT22;15471;51.166;4.470;2023-04-29T17:51:28;14.90;99.90
28189;DHT22;15471;51.166;4.470;2023-04-29T17:54:01;14.80;99.90
28189;DHT22;15471;51.166;4.470;2023-04-29T17:56:27;14.80;99.90
28189;DHT22;15471;51.166;4.470;2023-04-29T17:58:53;14.70;99.90
28189;DHT22;15471;51.166;4.470;2023-04-29T18:01:19;14.60;99.90
28189;DHT22;15471;51.166;4.470;2023-04-29T18:03:45;14.60;99.90
28189;DHT22;15471;51.166;4.470;2023-04-29T18:06:11;14.60;99.90
28189;DHT22;15471;51.166;4.470;2023-04-29T18:08:37;14.60;99.90
28189;DHT22;15471;51.166;4.470;2023-04-29T18:11:04;14.60;99.90
28189;DHT22;15471;51.166;4.470;2023-04-29T18:13:30;14.60;99.90
28189;DHT22;15471;51.166;4.470;2023-04-29T18:15:58;14.60;99.90
28189;DHT22;15471;51.166;4.470;2023-04-29T18:18:26;14.50;99.90
28189;DHT22;15471;51.166;4.470;2023-04-29T18:20:58;14.40;99.90
28189;DHT22;15471;51.166;4.470;2023-04-29T18:23:40;14.30;99.90
28189;DHT22;15471;51.166;4.470;2023-04-29T18:26:22;14.30;99.90
28189;DHT22;15471;51.166;4.470;2023-04-29T18:28:48;14.30;99.90
28189;DHT22;15471;51.166;4.470;2023-04-29T18:31:15;14.20;99.90
28189;DHT22;15471;51.166;4.470;2023-04-29T18:33:42;14.20;99.90
28189;DHT22;15471;51.166;4.470;2023-04-29T18:36:12;14.10;99.90
28189;DHT22;15471;51.166;4.470;2023-04-29T18:38:38;14.10;99.90
28189;DHT22;15471;51.166;4.470;2023-04-29T18:41:05;14.10;99.90
28189;DHT22;15471;51.166;4.470;2023-04-29T18:43:33;13.90;99.90
28189;DHT22;15471;51.166;4.470;2023-04-29T18:46:00;13.90;99.90
28189;DHT22;15471;51.166;4.470;2023-04-29T18:48:26;13.80;99.90
28189;DHT22;15471;51.166;4.470;2023-04-29T18:50:54;13.70;99.90
28189;DHT22;15471;51.166;4.470;2023-04-29T18:53:20;13.60;99.90
28189;DHT22;15471;51.166;4.470;2023-04-29T18:55:47;13.60;99.90
28189;DHT22;15471;51.166;4.470;2023-04-29T18:58:13;13.40;99.90
28189;DHT22;15471;51.166;4.470;2023-04-29T19:00:39;13.30;99.90
28189;DHT22;15471;51.166;4.470;2023-04-29T19:03:05;13.20;99.90
28189;DHT22;15471;51.166;4.470;2023-04-29T19:05:31;13.10;99.90
28189;DHT22;15471;51.166;4.470;2023-04-29T19:07:57;13.10;99.90
28189;DHT22;15471;51.166;4.470;2023-04-29T19:10:27;12.90;99.90
28189;DHT22;15471;51.166;4.470;2023-04-29T19:12:53;12.90;99.90
28189;DHT22;15471;51.166;4.470;2023-04-29T19:15:19;12.80;99.90
28189;DHT22;15471;51.166;4.470;2023-04-29T19:17:53;12.80;99.90
28189;DHT22;15471;51.166;4.470;2023-04-29T19:20:19;12.70;99.90
28189;DHT22;15471;51.166;4.470;2023-04-29T19:22:46;12.70;99.90
28189;DHT22;15471;51.166;4.470;2023-04-29T19:25:12;12.70;99.90
28189;DHT22;15471;51.166;4.470;2023-04-29T19:27:41;12.60;99.90
28189;DHT22;15471;51.166;4.470;2023-04-29T19:30:13;12.70;99.90
28189;DHT22;15471;51.166;4.470;2023-04-29T19:32:41;12.70;99.90
28189;DHT22;15471;51.166;4.470;2023-04-29T19:35:07;12.80;99.90
28189;DHT22;15471;51.166;4.470;2023-04-29T19:37:34;12.80;99.90
28189;DHT22;15471;51.166;4.470;2023-04-29T19:40:00;12.80;99.90
28189;DHT22;15471;51.166;4.470;2023-04-29T19:42:31;12.80;99.90
28189;DHT22;15471;51.166;4.470;2023-04-29T19:44:59;12.80;99.90
28189;DHT22;15471;51.166;4.470;2023-04-29T19:47:26;12.70;99.90
28189;DHT22;15471;51.166;4.470;2023-04-29T19:49:55;12.80;99.90
28189;DHT22;15471;51.166;4.470;2023-04-29T19:52:24;12.70;99.90
28189;DHT22;15471;51.166;4.470;2023-04-29T19:54:59;12.70;99.90
28189;DHT22;15471;51.166;4.470;2023-04-29T19:57:31;12.70;99.90
28189;DHT22;15471;51.166;4.470;2023-04-29T20:00:07;12.70;99.90
28189;DHT22;15471;51.166;4.470;2023-04-29T20:02:34;12.60;99.90
28189;DHT22;15471;51.166;4.470;2023-04-29T20:05:07;12.60;99.90
28189;DHT22;15471;51.166;4.470;2023-04-29T20:07:37;12.50;99.90
28189;DHT22;15471;51.166;4.470;2023-04-29T20:10:04;12.50;99.90
28189;DHT22;15471;51.166;4.470;2023-04-29T20:12:33;12.40;99.90
28189;DHT22;15471;51.166;4.470;2023-04-29T20:15:00;12.30;99.90
28189;DHT22;15471;51.166;4.470;2023-04-29T20:17:27;12.30;99.90
28189;DHT22;15471;51.166;4.470;2023-04-29T20:19:53;12.30;99.90
28189;DHT22;15471;51.166;4.470;2023-04-29T20:22:22;12.30;99.90
28189;DHT22;15471;51.166;4.470;2023-04-29T20:24:48;12.20;99.90
28189;DHT22;15471;51.166;4.470;2023-04-29T20:27:14;12.10;99.90
28189;DHT22;15471;51.166;4.470;2023-04-29T20:29:40;12.00;99.90
28189;DHT22;15471;51.166;4.470;2023-04-29T20:32:07;11.90;99.90
28189;DHT22;15471;51.166;4.470;2023-04-29T20:34:34;11.80;99.90
28189;DHT22;15471;51.166;4.470;2023-04-29T20:37:01;11.70;99.90
28189;DHT22;15471;51.166;4.470;2023-04-29T20:39:28;11.60;99.90
28189;DHT22;15471;51.166;4.470;2023-04-29T20:41:54;11.50;99.90
28189;DHT22;15471;51.166;4.470;2023-04-29T20:44:22;11.50;99.90
28189;DHT22;15471;51.166;4.470;2023-04-29T20:46:48;11.40;99.90
28189;DHT22;15471;51.166;4.470;2023-04-29T20:49:16;11.30;99.90
28189;DHT22;15471;51.166;4.470;2023-04-29T20:51:42;11.20;99.90
28189;DHT22;15471;51.166;4.470;2023-04-29T20:54:08;11.20;99.90
28189;DHT22;15471;51.166;4.470;2023-04-29T20:56:34;11.10;99.90
28189;DHT22;15471;51.166;4.470;2023-04-29T20:59:00;11.00;99.90
28189;DHT22;15471;51.166;4.470;2023-04-29T21:01:28;11.00;99.90
28189;DHT22;15471;51.166;4.470;2023-04-29T21:03:54;10.90;99.90
28189;DHT22;15471;51.166;4.470;2023-04-29T21:06:20;10.90;99.90
28189;DHT22;15471;51.166;4.470;2023-04-29T21:08:46;10.80;99.90
28189;DHT22;15471;51.166;4.470;2023-04-29T21:11:12;10.80;99.90
28189;DHT22;15471;51.166;4.470;2023-04-29T21:13:38;10.70;99.90
28189;DHT22;15471;51.166;4.470;2023-04-29T21:16:04;10.70;99.90
28189;DHT22;15471;51.166;4.470;2023-04-29T21:18:30;10.60;99.90
28189;DHT22;15471;51.166;4.470;2023-04-29T21:20:56;10.60;99.90
28189;DHT22;15471;51.166;4.470;2023-04-29T21:23:22;10.50;99.90
28189;DHT22;15471;51.166;4.470;2023-04-29T21:25:48;10.50;99.90
28189;DHT22;15471;51.166;4.470;2023-04-29T21:28:14;10.50;99.90
28189;DHT22;15471;51.166;4.470;2023-04-29T21:30:40;10.40;99.90
28189;DHT22;15471;51.166;4.470;2023-04-29T21:33:06;10.40;99.90
28189;DHT22;15471;51.166;4.470;2023-04-29T21:35:32;10.40;99.90
28189;DHT22;15471;51.166;4.470;2023-04-29T21:37:58;10.30;99.90
28189;DHT22;15471;51.166;4.470;2023-04-29T21:40:24;10.30;99.90
28189;DHT22;15471;51.166;4.470;2023-04-29T21:42:51;10.20;99.90
28189;DHT22;15471;51.166;4.470;2023-04-29T21:45:19;10.20;99.90
28189;DHT22;15471;51.166;4.470;2023-04-29T21:47:46;10.20;99.90
28189;DHT22;15471;51.166;4.470;2023-04-29T21:50:13;10.20;99.90
28189;DHT22;15471;51.166;4.470;2023-04-29T21:52:39;10.10;99.90
28189;DHT22;15471;51.166;4.470;2023-04-29T21:55:06;10.10;99.90
28189;DHT22;15471;51.166;4.470;2023-04-29T21:57:32;10.10;99.90
28189;DHT22;15471;51.166;4.470;2023-04-29T21:59:58;10.10;99.90
28189;DHT22;15471;51.166;4.470;2023-04-29T22:02:24;10.10;99.90
28189;DHT22;15471;51.166;4.470;2023-04-29T22:04:52;10.00;99.90
28189;DHT22;15471;51.166;4.470;2023-04-29T22:07:21;9.90;99.90
28189;DHT22;15471;51.166;4.470;2023-04-29T22:09:47;9.90;99.90
28189;DHT22;15471;51.166;4.470;2023-04-29T22:12:21;9.80;99.90
28189;DHT22;15471;51.166;4.470;2023-04-29T22:14:47;9.90;99.90
28189;DHT22;15471;51.166;4.470;2023-04-29T22:17:13;9.90;99.90
28189;DHT22;15471;51.166;4.470;2023-04-29T22:19:39;9.90;99.90
28189;DHT22;15471;51.166;4.470;2023-04-29T22:22:05;9.80;99.90
28189;DHT22;15471;51.166;4.470;2023-04-29T22:24:32;9.80;99.90
28189;DHT22;15471;51.166;4.470;2023-04-29T22:26:58;9.70;99.90
28189;DHT22;15471;51.166;4.470;2023-04-29T22:29:24;9.60;99.90
28189;DHT22;15471;51.166;4.470;2023-04-29T22:31:50;9.60;99.90
28189;DHT22;15471;51.166;4.470;2023-04-29T22:34:16;9.50;99.90
28189;DHT22;15471;51.166;4.470;2023-04-29T22:36:42;9.40;99.90
28189;DHT22;15471;51.166;4.470;2023-04-29T22:39:08;9.40;99.90
28189;DHT22;15471;51.166;4.470;2023-04-29T22:41:34;9.40;99.90
28189;DHT22;15471;51.166;4.470;2023-04-29T22:44:00;9.40;99.90
28189;DHT22;15471;51.166;4.470;2023-04-29T22:46:26;9.40;99.90
28189;DHT22;15471;51.166;4.470;2023-04-29T22:48:52;9.30;99.90
28189;DHT22;15471;51.166;4.470;2023-04-29T22:51:18;9.30;99.90
28189;DHT22;15471;51.166;4.470;2023-04-29T22:53:44;9.20;99.90
28189;DHT22;15471;51.166;4.470;2023-04-29T22:56:11;9.20;99.90
28189;DHT22;15471;51.166;4.470;2023-04-29T22:58:37;9.10;99.90
28189;DHT22;15471;51.166;4.470;2023-04-29T23:01:04;9.10;99.90
28189;DHT22;15471;51.166;4.470;2023-04-29T23:03:30;9.10;99.90
28189;DHT22;15471;51.166;4.470;2023-04-29T23:05:57;9.10;99.90
28189;DHT22;15471;51.166;4.470;2023-04-29T23:08:24;9.10;99.90
28189;DHT22;15471;51.166;4.470;2023-04-29T23:10:51;9.10;99.90
28189;DHT22;15471;51.166;4.470;2023-04-29T23:13:17;9.10;99.90
28189;DHT22;15471;51.166;4.470;2023-04-29T23:15:44;9.10;99.90
28189;DHT22;15471;51.166;4.470;2023-04-29T23:18:10;9.00;99.90
28189;DHT22;15471;51.166;4.470;2023-04-29T23:20:36;9.10;99.90
28189;DHT22;15471;51.166;4.470;2023-04-29T23:23:02;9.10;99.90
28189;DHT22;15471;51.166;4.470;2023-04-29T23:25:29;9.00;99.90
28189;DHT22;15471;51.166;4.470;2023-04-29T23:27:55;9.00;99.90
28189;DHT22;15471;51.166;4.470;2023-04-29T23:30:21;8.90;99.90
28189;DHT22;15471;51.166;4.470;2023-04-29T23:32:47;9.00;99.90
28189;DHT22;15471;51.166;4.470;2023-04-29T23:35:13;9.00;99.90
28189;DHT22;15471;51.166;4.470;2023-04-29T23:37:39;9.00;99.90
28189;DHT22;15471;51.166;4.470;2023-04-29T23:40:05;9.00;99.90
28189;DHT22;15471;51.166;4.470;2023-04-29T23:42:32;9.00;99.90
28189;DHT22;15471;51.166;4.470;2023-04-29T23:44:58;9.00;99.90
28189;DHT22;15471;51.166;4.470;2023-04-29T23:47:24;9.00;99.90
28189;DHT22;15471;51.166;4.470;2023-04-29T23:49:50;9.00;99.90
28189;DHT22;15471;51.166;4.470;2023-04-29T23:52:16;9.00;99.90
28189;DHT22;15471;51.166;4.470;2023-04-29T23:54:42;8.90;99.90
28189;DHT22;15471;51.166;4.470;2023-04-29T23:57:08;8.80;99.90
28189;DHT22;15471;51.166;4.470;2023-04-29T23:59:34;8.80;99.90
